Main page
METAR-TAF:

METAR-TAF

Airports :

Waddington, England

RAF Waddington

latitude: 53-10N, longitude: 000-31W, elevation: 68 m

Current weather observation

The report was made 28 minutes ago, at 22:50 UTC
Wind 6 kt from the West/Southwest
Temperature 14°C
Humidity 82%
Pressure 1013 hPa
Visibility 10 km or more
no clouds below 1500 m and no cumulonimbus

METAR: EGXW 232250Z 24006KT CAVOK 14/11 Q1013 BLU

Time: 00:18 (23:18 UTC)

Forecast

The report was made 3 hours and 56 minutes ago, at 19:22 UTC
Forecast valid from 23 at 21 UTC to 24 at 15 UTC
Wind 8 kt from the West
Visibility 10 km or more
Scattered clouds at a height of 3000 ft

TAF: EGXW 231922Z 2321/2415 26008KT 9999 SCT030

Weather observations and forecasts of more than 4000 airports (METAR and TAF reports).

The available stations are represented by yellow and red dots on the map.

Hover mouse over dot to see the name of the station.

Then click to see weather observations and forecasts.

To change the map : click on the green buttons with a black cross to zoom in, on the green button with a dash to zoom out, or on the green arrows for adjacent maps.


METAR-TAF: